Terminal Aerodrome Forecast
Issued by NWS

Current Version | Previous Version | Graphics & Text | Print | Product List | Glossary On
Versions: 1 2 3 4 5 6 7 8 9 10 11 12 13 14 15 16 17 18 19 20 21 22 23 24
000
FTUS41 KPBZ 021720
TAFMGW
TAF
KMGW 021720Z 0218/0318 26009KT P6SM SCT025 BKN070
     FM022300 34005KT P6SM -SHRA VCTS OVC040CB
     FM030900 VRB03KT P6SM VCSH OVC030=

USA.gov is the U.S. government's official web portal to all federal, state and local government web resources and services.